sensor_id;sensor_type;location;lat;lon;timestamp;P1;durP1;ratioP1;P2;durP2;ratioP2
5058;SDS011;2548;52.050;11.036;2023-05-19T00:00:22;4.45;;;2.22;;
5058;SDS011;2548;52.050;11.036;2023-05-19T00:02:52;4.15;;;2.65;;
5058;SDS011;2548;52.050;11.036;2023-05-19T00:05:21;6.90;;;2.90;;
5058;SDS011;2548;52.050;11.036;2023-05-19T00:08:01;10.30;;;3.10;;
5058;SDS011;2548;52.050;11.036;2023-05-19T00:10:30;7.80;;;2.72;;
5058;SDS011;2548;52.050;11.036;2023-05-19T00:12:58;10.15;;;2.70;;
5058;SDS011;2548;52.050;11.036;2023-05-19T00:15:35;7.20;;;2.20;;
5058;SDS011;2548;52.050;11.036;2023-05-19T00:18:02;8.27;;;2.80;;
5058;SDS011;2548;52.050;11.036;2023-05-19T00:20:40;4.03;;;2.85;;
5058;SDS011;2548;52.050;11.036;2023-05-19T00:23:09;7.95;;;2.90;;
5058;SDS011;2548;52.050;11.036;2023-05-19T00:25:37;3.38;;;2.25;;
5058;SDS011;2548;52.050;11.036;2023-05-19T00:28:04;4.13;;;2.90;;
5058;SDS011;2548;52.050;11.036;2023-05-19T00:30:35;6.10;;;4.10;;
5058;SDS011;2548;52.050;11.036;2023-05-19T00:33:02;8.38;;;2.95;;
5058;SDS011;2548;52.050;11.036;2023-05-19T00:35:30;5.88;;;2.60;;
5058;SDS011;2548;52.050;11.036;2023-05-19T00:37:57;5.80;;;2.83;;
5058;SDS011;2548;52.050;11.036;2023-05-19T00:40:29;7.40;;;3.35;;
5058;SDS011;2548;52.050;11.036;2023-05-19T00:42:57;6.45;;;3.50;;
5058;SDS011;2548;52.050;11.036;2023-05-19T00:45:25;8.18;;;3.53;;
5058;SDS011;2548;52.050;11.036;2023-05-19T00:47:56;7.70;;;3.00;;
5058;SDS011;2548;52.050;11.036;2023-05-19T00:50:26;8.90;;;2.90;;
5058;SDS011;2548;52.050;11.036;2023-05-19T00:53:03;4.45;;;3.10;;
5058;SDS011;2548;52.050;11.036;2023-05-19T00:55:49;7.35;;;3.45;;
5058;SDS011;2548;52.050;11.036;2023-05-19T00:58:17;3.78;;;2.60;;
5058;SDS011;2548;52.050;11.036;2023-05-19T01:00:49;12.95;;;3.80;;
5058;SDS011;2548;52.050;11.036;2023-05-19T01:03:16;7.28;;;2.33;;
5058;SDS011;2548;52.050;11.036;2023-05-19T01:05:48;4.10;;;3.38;;
5058;SDS011;2548;52.050;11.036;2023-05-19T01:08:18;3.80;;;2.50;;
5058;SDS011;2548;52.050;11.036;2023-05-19T01:11:09;10.43;;;3.40;;
5058;SDS011;2548;52.050;11.036;2023-05-19T01:13:37;8.38;;;3.58;;
5058;SDS011;2548;52.050;11.036;2023-05-19T01:16:06;8.55;;;3.78;;
5058;SDS011;2548;52.050;11.036;2023-05-19T01:18:43;4.93;;;2.67;;
5058;SDS011;2548;52.050;11.036;2023-05-19T01:21:22;5.53;;;2.80;;
5058;SDS011;2548;52.050;11.036;2023-05-19T01:24:07;8.38;;;3.83;;
5058;SDS011;2548;52.050;11.036;2023-05-19T01:27:03;4.68;;;2.65;;
5058;SDS011;2548;52.050;11.036;2023-05-19T01:29:50;14.32;;;3.22;;
5058;SDS011;2548;52.050;11.036;2023-05-19T01:32:48;8.30;;;3.33;;
5058;SDS011;2548;52.050;11.036;2023-05-19T01:35:18;4.78;;;3.00;;
5058;SDS011;2548;52.050;11.036;2023-05-19T01:37:54;4.90;;;3.00;;
5058;SDS011;2548;52.050;11.036;2023-05-19T01:40:22;3.33;;;3.13;;
5058;SDS011;2548;52.050;11.036;2023-05-19T01:42:59;8.18;;;3.47;;
5058;SDS011;2548;52.050;11.036;2023-05-19T01:48:11;4.43;;;3.50;;
5058;SDS011;2548;52.050;11.036;2023-05-19T01:50:40;5.55;;;3.40;;
5058;SDS011;2548;52.050;11.036;2023-05-19T01:53:11;6.38;;;2.90;;
5058;SDS011;2548;52.050;11.036;2023-05-19T01:55:41;6.07;;;3.35;;
5058;SDS011;2548;52.050;11.036;2023-05-19T01:58:14;7.38;;;3.10;;
5058;SDS011;2548;52.050;11.036;2023-05-19T02:00:51;4.57;;;3.45;;
5058;SDS011;2548;52.050;11.036;2023-05-19T02:03:36;5.40;;;3.30;;
5058;SDS011;2548;52.050;11.036;2023-05-19T02:06:22;4.13;;;3.00;;
5058;SDS011;2548;52.050;11.036;2023-05-19T02:09:03;5.68;;;2.88;;
5058;SDS011;2548;52.050;11.036;2023-05-19T02:11:37;5.53;;;3.40;;
5058;SDS011;2548;52.050;11.036;2023-05-19T02:14:11;5.30;;;3.92;;
5058;SDS011;2548;52.050;11.036;2023-05-19T02:16:44;3.70;;;3.40;;
5058;SDS011;2548;52.050;11.036;2023-05-19T02:19:20;15.45;;;3.78;;
5058;SDS011;2548;52.050;11.036;2023-05-19T02:21:49;8.25;;;3.13;;
5058;SDS011;2548;52.050;11.036;2023-05-19T02:24:20;7.65;;;3.95;;
5058;SDS011;2548;52.050;11.036;2023-05-19T02:26:48;8.63;;;4.03;;
5058;SDS011;2548;52.050;11.036;2023-05-19T02:29:17;6.00;;;3.63;;
5058;SDS011;2548;52.050;11.036;2023-05-19T02:31:54;9.38;;;4.15;;
5058;SDS011;2548;52.050;11.036;2023-05-19T02:34:21;6.82;;;3.20;;
5058;SDS011;2548;52.050;11.036;2023-05-19T02:36:49;5.03;;;3.97;;
5058;SDS011;2548;52.050;11.036;2023-05-19T02:39:18;7.00;;;3.58;;
5058;SDS011;2548;52.050;11.036;2023-05-19T02:41:46;9.02;;;2.92;;
5058;SDS011;2548;52.050;11.036;2023-05-19T02:44:15;11.52;;;3.88;;
5058;SDS011;2548;52.050;11.036;2023-05-19T02:46:43;10.27;;;3.28;;
5058;SDS011;2548;52.050;11.036;2023-05-19T02:49:12;7.25;;;4.05;;
5058;SDS011;2548;52.050;11.036;2023-05-19T02:51:39;15.15;;;4.47;;
5058;SDS011;2548;52.050;11.036;2023-05-19T02:54:07;12.13;;;4.40;;
5058;SDS011;2548;52.050;11.036;2023-05-19T02:56:34;8.98;;;3.75;;
5058;SDS011;2548;52.050;11.036;2023-05-19T02:59:08;6.53;;;3.70;;
5058;SDS011;2548;52.050;11.036;2023-05-19T03:01:38;10.70;;;4.20;;
5058;SDS011;2548;52.050;11.036;2023-05-19T03:04:09;5.18;;;3.53;;
5058;SDS011;2548;52.050;11.036;2023-05-19T03:06:44;6.38;;;3.35;;
5058;SDS011;2548;52.050;11.036;2023-05-19T03:09:12;12.70;;;3.78;;
5058;SDS011;2548;52.050;11.036;2023-05-19T03:11:40;17.65;;;4.38;;
5058;SDS011;2548;52.050;11.036;2023-05-19T03:14:07;16.42;;;4.57;;
5058;SDS011;2548;52.050;11.036;2023-05-19T03:16:35;11.63;;;4.28;;
5058;SDS011;2548;52.050;11.036;2023-05-19T03:19:02;8.20;;;4.20;;
5058;SDS011;2548;52.050;11.036;2023-05-19T03:21:37;11.05;;;3.80;;
5058;SDS011;2548;52.050;11.036;2023-05-19T03:24:04;5.22;;;3.95;;
5058;SDS011;2548;52.050;11.036;2023-05-19T03:26:38;12.85;;;4.95;;
5058;SDS011;2548;52.050;11.036;2023-05-19T03:29:06;3.78;;;3.47;;
5058;SDS011;2548;52.050;11.036;2023-05-19T03:31:36;15.77;;;4.70;;
5058;SDS011;2548;52.050;11.036;2023-05-19T03:34:04;10.88;;;4.70;;
5058;SDS011;2548;52.050;11.036;2023-05-19T03:36:40;6.55;;;3.38;;
5058;SDS011;2548;52.050;11.036;2023-05-19T03:39:13;7.35;;;4.85;;
5058;SDS011;2548;52.050;11.036;2023-05-19T03:41:41;8.27;;;4.15;;
5058;SDS011;2548;52.050;11.036;2023-05-19T03:44:09;9.45;;;3.78;;
5058;SDS011;2548;52.050;11.036;2023-05-19T03:46:36;10.50;;;3.80;;
5058;SDS011;2548;52.050;11.036;2023-05-19T03:49:24;6.07;;;3.88;;
5058;SDS011;2548;52.050;11.036;2023-05-19T03:52:25;8.07;;;4.65;;
5058;SDS011;2548;52.050;11.036;2023-05-19T03:55:04;7.35;;;3.97;;
5058;SDS011;2548;52.050;11.036;2023-05-19T03:57:32;13.90;;;4.07;;
5058;SDS011;2548;52.050;11.036;2023-05-19T04:00:03;12.07;;;4.82;;
5058;SDS011;2548;52.050;11.036;2023-05-19T04:02:38;10.60;;;4.35;;
5058;SDS011;2548;52.050;11.036;2023-05-19T04:05:08;7.13;;;4.07;;
5058;SDS011;2548;52.050;11.036;2023-05-19T04:07:37;5.35;;;4.07;;
5058;SDS011;2548;52.050;11.036;2023-05-19T04:10:06;11.50;;;3.80;;
5058;SDS011;2548;52.050;11.036;2023-05-19T04:12:34;13.20;;;4.00;;
5058;SDS011;2548;52.050;11.036;2023-05-19T04:15:01;9.15;;;4.55;;
5058;SDS011;2548;52.050;11.036;2023-05-19T04:17:30;11.07;;;4.78;;
5058;SDS011;2548;52.050;11.036;2023-05-19T04:20:01;5.35;;;4.05;;
5058;SDS011;2548;52.050;11.036;2023-05-19T04:22:30;9.27;;;4.00;;
5058;SDS011;2548;52.050;11.036;2023-05-19T04:24:59;11.05;;;3.58;;
5058;SDS011;2548;52.050;11.036;2023-05-19T04:27:28;4.78;;;3.70;;
5058;SDS011;2548;52.050;11.036;2023-05-19T04:30:05;7.32;;;3.88;;
5058;SDS011;2548;52.050;11.036;2023-05-19T04:32:33;8.13;;;4.55;;
5058;SDS011;2548;52.050;11.036;2023-05-19T04:35:02;13.50;;;4.43;;
5058;SDS011;2548;52.050;11.036;2023-05-19T04:37:30;7.20;;;4.45;;
5058;SDS011;2548;52.050;11.036;2023-05-19T04:39:59;5.78;;;3.50;;
5058;SDS011;2548;52.050;11.036;2023-05-19T04:42:37;23.80;;;4.68;;
5058;SDS011;2548;52.050;11.036;2023-05-19T04:45:08;5.43;;;3.97;;
5058;SDS011;2548;52.050;11.036;2023-05-19T04:47:39;6.93;;;3.95;;
5058;SDS011;2548;52.050;11.036;2023-05-19T04:50:07;15.55;;;3.67;;
5058;SDS011;2548;52.050;11.036;2023-05-19T04:52:39;4.25;;;3.85;;
5058;SDS011;2548;52.050;11.036;2023-05-19T04:55:08;9.57;;;4.45;;
5058;SDS011;2548;52.050;11.036;2023-05-19T04:57:38;3.55;;;3.25;;
5058;SDS011;2548;52.050;11.036;2023-05-19T05:00:08;9.18;;;3.65;;
5058;SDS011;2548;52.050;11.036;2023-05-19T05:02:51;11.82;;;3.33;;
5058;SDS011;2548;52.050;11.036;2023-05-19T05:05:22;11.90;;;3.92;;
5058;SDS011;2548;52.050;11.036;2023-05-19T05:07:52;7.13;;;3.47;;
5058;SDS011;2548;52.050;11.036;2023-05-19T05:10:23;6.75;;;4.07;;
5058;SDS011;2548;52.050;11.036;2023-05-19T05:12:55;4.40;;;3.25;;
5058;SDS011;2548;52.050;11.036;2023-05-19T05:15:23;20.27;;;3.63;;
5058;SDS011;2548;52.050;11.036;2023-05-19T05:17:56;8.52;;;3.33;;
5058;SDS011;2548;52.050;11.036;2023-05-19T05:20:27;5.53;;;3.03;;
5058;SDS011;2548;52.050;11.036;2023-05-19T05:22:56;18.52;;;3.25;;
5058;SDS011;2548;52.050;11.036;2023-05-19T05:25:26;8.65;;;3.42;;
5058;SDS011;2548;52.050;11.036;2023-05-19T05:27:57;3.92;;;2.50;;
5058;SDS011;2548;52.050;11.036;2023-05-19T05:30:29;5.03;;;2.72;;
5058;SDS011;2548;52.050;11.036;2023-05-19T05:32:59;6.72;;;3.13;;
5058;SDS011;2548;52.050;11.036;2023-05-19T05:35:37;6.45;;;3.00;;
5058;SDS011;2548;52.050;11.036;2023-05-19T05:38:06;4.55;;;2.72;;
5058;SDS011;2548;52.050;11.036;2023-05-19T05:40:39;12.60;;;3.28;;
5058;SDS011;2548;52.050;11.036;2023-05-19T05:43:07;7.55;;;2.78;;
5058;SDS011;2548;52.050;11.036;2023-05-19T05:45:41;7.00;;;2.95;;
5058;SDS011;2548;52.050;11.036;2023-05-19T05:48:09;13.40;;;3.50;;
5058;SDS011;2548;52.050;11.036;2023-05-19T05:50:37;6.35;;;2.70;;
5058;SDS011;2548;52.050;11.036;2023-05-19T05:53:09;4.15;;;2.53;;
5058;SDS011;2548;52.050;11.036;2023-05-19T05:55:44;4.22;;;2.80;;
5058;SDS011;2548;52.050;11.036;2023-05-19T05:58:13;7.18;;;3.10;;
5058;SDS011;2548;52.050;11.036;2023-05-19T06:00:45;11.00;;;3.00;;
5058;SDS011;2548;52.050;11.036;2023-05-19T06:03:13;5.10;;;2.70;;
5058;SDS011;2548;52.050;11.036;2023-05-19T06:05:46;3.35;;;3.05;;
5058;SDS011;2548;52.050;11.036;2023-05-19T06:08:14;13.73;;;4.28;;
5058;SDS011;2548;52.050;11.036;2023-05-19T06:10:51;6.40;;;2.45;;
5058;SDS011;2548;52.050;11.036;2023-05-19T06:13:18;5.43;;;2.65;;
5058;SDS011;2548;52.050;11.036;2023-05-19T06:15:50;7.18;;;3.47;;
5058;SDS011;2548;52.050;11.036;2023-05-19T06:18:23;5.53;;;2.97;;
5058;SDS011;2548;52.050;11.036;2023-05-19T06:20:56;6.30;;;2.35;;
5058;SDS011;2548;52.050;11.036;2023-05-19T06:23:24;7.50;;;3.35;;
5058;SDS011;2548;52.050;11.036;2023-05-19T06:25:55;7.03;;;2.67;;
5058;SDS011;2548;52.050;11.036;2023-05-19T06:28:22;8.45;;;3.10;;
5058;SDS011;2548;52.050;11.036;2023-05-19T06:30:54;6.20;;;2.47;;
5058;SDS011;2548;52.050;11.036;2023-05-19T06:33:42;4.60;;;2.60;;
5058;SDS011;2548;52.050;11.036;2023-05-19T06:36:12;4.78;;;3.05;;
5058;SDS011;2548;52.050;11.036;2023-05-19T06:38:41;8.55;;;2.85;;
5058;SDS011;2548;52.050;11.036;2023-05-19T06:41:11;5.30;;;2.60;;
5058;SDS011;2548;52.050;11.036;2023-05-19T06:43:39;9.93;;;3.35;;
5058;SDS011;2548;52.050;11.036;2023-05-19T06:46:12;5.93;;;2.95;;
5058;SDS011;2548;52.050;11.036;2023-05-19T06:48:42;6.25;;;2.97;;
5058;SDS011;2548;52.050;11.036;2023-05-19T06:51:10;4.35;;;2.83;;
5058;SDS011;2548;52.050;11.036;2023-05-19T06:53:39;8.35;;;2.60;;
5058;SDS011;2548;52.050;11.036;2023-05-19T06:56:08;6.05;;;2.97;;
5058;SDS011;2548;52.050;11.036;2023-05-19T06:58:39;14.75;;;3.78;;
5058;SDS011;2548;52.050;11.036;2023-05-19T07:01:06;4.68;;;2.35;;
5058;SDS011;2548;52.050;11.036;2023-05-19T07:03:44;5.20;;;2.63;;
5058;SDS011;2548;52.050;11.036;2023-05-19T07:06:13;5.75;;;2.50;;
5058;SDS011;2548;52.050;11.036;2023-05-19T07:08:41;7.22;;;2.35;;
5058;SDS011;2548;52.050;11.036;2023-05-19T07:11:10;4.60;;;2.63;;
5058;SDS011;2548;52.050;11.036;2023-05-19T07:13:40;16.35;;;3.70;;
5058;SDS011;2548;52.050;11.036;2023-05-19T07:16:08;7.95;;;2.58;;
5058;SDS011;2548;52.050;11.036;2023-05-19T07:18:36;6.85;;;3.00;;
5058;SDS011;2548;52.050;11.036;2023-05-19T07:21:03;6.30;;;3.03;;
5058;SDS011;2548;52.050;11.036;2023-05-19T07:23:32;5.15;;;2.65;;
5058;SDS011;2548;52.050;11.036;2023-05-19T07:26:08;3.60;;;2.75;;
5058;SDS011;2548;52.050;11.036;2023-05-19T07:28:35;5.43;;;2.83;;
5058;SDS011;2548;52.050;11.036;2023-05-19T07:31:10;4.97;;;3.10;;
5058;SDS011;2548;52.050;11.036;2023-05-19T07:33:37;6.75;;;2.47;;
5058;SDS011;2548;52.050;11.036;2023-05-19T07:36:05;6.50;;;2.80;;
5058;SDS011;2548;52.050;11.036;2023-05-19T07:38:35;6.22;;;2.10;;
5058;SDS011;2548;52.050;11.036;2023-05-19T07:41:03;4.10;;;2.83;;
5058;SDS011;2548;52.050;11.036;2023-05-19T07:43:41;3.05;;;2.08;;
5058;SDS011;2548;52.050;11.036;2023-05-19T07:46:10;2.97;;;2.78;;
5058;SDS011;2548;52.050;11.036;2023-05-19T07:48:37;5.45;;;2.45;;
5058;SDS011;2548;52.050;11.036;2023-05-19T07:51:04;6.18;;;3.03;;
5058;SDS011;2548;52.050;11.036;2023-05-19T07:53:37;6.07;;;2.92;;
5058;SDS011;2548;52.050;11.036;2023-05-19T07:56:07;3.72;;;2.80;;
5058;SDS011;2548;52.050;11.036;2023-05-19T07:58:35;8.40;;;2.60;;
5058;SDS011;2548;52.050;11.036;2023-05-19T08:01:07;8.45;;;2.70;;
5058;SDS011;2548;52.050;11.036;2023-05-19T08:03:36;5.05;;;3.08;;
5058;SDS011;2548;52.050;11.036;2023-05-19T08:06:04;9.52;;;2.90;;
5058;SDS011;2548;52.050;11.036;2023-05-19T08:08:40;8.85;;;2.70;;
5058;SDS011;2548;52.050;11.036;2023-05-19T08:11:07;13.80;;;2.53;;
5058;SDS011;2548;52.050;11.036;2023-05-19T08:13:35;5.03;;;2.50;;
5058;SDS011;2548;52.050;11.036;2023-05-19T08:16:08;5.13;;;2.57;;
5058;SDS011;2548;52.050;11.036;2023-05-19T08:18:36;7.35;;;2.35;;
5058;SDS011;2548;52.050;11.036;2023-05-19T08:21:07;9.05;;;2.30;;
5058;SDS011;2548;52.050;11.036;2023-05-19T08:23:34;2.92;;;2.42;;
5058;SDS011;2548;52.050;11.036;2023-05-19T08:26:09;5.05;;;2.42;;
5058;SDS011;2548;52.050;11.036;2023-05-19T08:28:42;6.43;;;2.90;;
5058;SDS011;2548;52.050;11.036;2023-05-19T08:31:11;4.63;;;2.70;;
5058;SDS011;2548;52.050;11.036;2023-05-19T08:33:38;4.80;;;2.17;;
5058;SDS011;2548;52.050;11.036;2023-05-19T08:36:06;11.23;;;2.90;;
5058;SDS011;2548;52.050;11.036;2023-05-19T08:38:33;3.23;;;2.00;;
5058;SDS011;2548;52.050;11.036;2023-05-19T08:41:01;4.83;;;2.13;;
5058;SDS011;2548;52.050;11.036;2023-05-19T08:43:29;2.30;;;1.70;;
5058;SDS011;2548;52.050;11.036;2023-05-19T08:45:59;4.40;;;2.23;;
5058;SDS011;2548;52.050;11.036;2023-05-19T08:48:30;3.53;;;3.23;;
5058;SDS011;2548;52.050;11.036;2023-05-19T08:51:10;2.43;;;2.20;;
5058;SDS011;2548;52.050;11.036;2023-05-19T08:53:45;6.40;;;2.58;;
5058;SDS011;2548;52.050;11.036;2023-05-19T08:56:21;3.13;;;2.33;;
5058;SDS011;2548;52.050;11.036;2023-05-19T08:58:51;2.60;;;1.80;;
5058;SDS011;2548;52.050;11.036;2023-05-19T09:01:19;3.60;;;2.17;;
5058;SDS011;2548;52.050;11.036;2023-05-19T09:03:49;3.97;;;2.97;;
5058;SDS011;2548;52.050;11.036;2023-05-19T09:06:17;6.43;;;2.53;;
5058;SDS011;2548;52.050;11.036;2023-05-19T09:08:45;4.10;;;2.40;;
5058;SDS011;2548;52.050;11.036;2023-05-19T09:11:13;2.80;;;2.53;;
5058;SDS011;2548;52.050;11.036;2023-05-19T09:13:43;2.60;;;2.40;;
5058;SDS011;2548;52.050;11.036;2023-05-19T09:16:11;3.20;;;2.87;;
5058;SDS011;2548;52.050;11.036;2023-05-19T09:18:55;9.50;;;2.27;;
5058;SDS011;2548;52.050;11.036;2023-05-19T09:21:26;2.80;;;2.30;;
5058;SDS011;2548;52.050;11.036;2023-05-19T09:23:55;3.07;;;2.10;;
5058;SDS011;2548;52.050;11.036;2023-05-19T09:26:23;2.87;;;1.87;;
5058;SDS011;2548;52.050;11.036;2023-05-19T09:29:01;2.90;;;2.20;;
5058;SDS011;2548;52.050;11.036;2023-05-19T09:31:37;2.87;;;2.43;;
5058;SDS011;2548;52.050;11.036;2023-05-19T09:34:11;3.90;;;1.90;;
5058;SDS011;2548;52.050;11.036;2023-05-19T09:36:40;5.83;;;2.60;;
5058;SDS011;2548;52.050;11.036;2023-05-19T09:39:14;2.40;;;2.20;;
5058;SDS011;2548;52.050;11.036;2023-05-19T09:41:42;2.03;;;1.80;;
5058;SDS011;2548;52.050;11.036;2023-05-19T09:44:12;24.50;;;14.10;;
5058;SDS011;2548;52.050;11.036;2023-05-19T09:46:59;16.40;;;10.70;;
5058;SDS011;2548;52.050;11.036;2023-05-19T09:49:31;7.63;;;5.83;;
5058;SDS011;2548;52.050;11.036;2023-05-19T09:51:59;4.43;;;3.33;;
5058;SDS011;2548;52.050;11.036;2023-05-19T09:54:32;4.23;;;2.03;;
5058;SDS011;2548;52.050;11.036;2023-05-19T09:57:00;2.90;;;2.10;;
5058;SDS011;2548;52.050;11.036;2023-05-19T09:59:28;2.73;;;2.50;;
5058;SDS011;2548;52.050;11.036;2023-05-19T10:01:59;6.00;;;2.80;;
5058;SDS011;2548;52.050;11.036;2023-05-19T10:04:31;2.80;;;1.93;;
5058;SDS011;2548;52.050;11.036;2023-05-19T10:07:00;2.43;;;2.10;;
5058;SDS011;2548;52.050;11.036;2023-05-19T10:09:30;2.53;;;2.23;;
5058;SDS011;2548;52.050;11.036;2023-05-19T10:11:59;3.10;;;2.00;;
5058;SDS011;2548;52.050;11.036;2023-05-19T10:14:28;2.13;;;2.00;;
5058;SDS011;2548;52.050;11.036;2023-05-19T10:16:56;2.93;;;1.60;;
5058;SDS011;2548;52.050;11.036;2023-05-19T10:19:25;2.33;;;1.97;;
5058;SDS011;2548;52.050;11.036;2023-05-19T10:21:54;3.93;;;2.10;;
5058;SDS011;2548;52.050;11.036;2023-05-19T10:24:22;4.30;;;2.07;;
5058;SDS011;2548;52.050;11.036;2023-05-19T10:26:50;1.60;;;1.50;;
5058;SDS011;2548;52.050;11.036;2023-05-19T10:29:22;4.67;;;1.97;;
5058;SDS011;2548;52.050;11.036;2023-05-19T10:31:53;3.40;;;1.77;;
5058;SDS011;2548;52.050;11.036;2023-05-19T10:34:27;4.13;;;2.63;;
5058;SDS011;2548;52.050;11.036;2023-05-19T10:37:19;4.70;;;2.40;;
5058;SDS011;2548;52.050;11.036;2023-05-19T10:39:57;3.33;;;1.97;;
5058;SDS011;2548;52.050;11.036;2023-05-19T10:42:28;2.17;;;1.90;;
5058;SDS011;2548;52.050;11.036;2023-05-19T10:45:05;7.00;;;5.40;;
5058;SDS011;2548;52.050;11.036;2023-05-19T10:47:39;4.80;;;3.33;;
5058;SDS011;2548;52.050;11.036;2023-05-19T10:50:07;7.10;;;5.10;;
5058;SDS011;2548;52.050;11.036;2023-05-19T10:52:37;8.07;;;5.20;;
5058;SDS011;2548;52.050;11.036;2023-05-19T10:55:11;6.73;;;3.43;;
5058;SDS011;2548;52.050;11.036;2023-05-19T10:57:54;4.07;;;1.93;;
5058;SDS011;2548;52.050;11.036;2023-05-19T11:00:28;5.93;;;2.23;;
5058;SDS011;2548;52.050;11.036;2023-05-19T11:03:10;2.40;;;1.67;;
5058;SDS011;2548;52.050;11.036;2023-05-19T11:05:39;9.77;;;2.03;;
5058;SDS011;2548;52.050;11.036;2023-05-19T11:08:08;2.20;;;2.00;;
5058;SDS011;2548;52.050;11.036;2023-05-19T11:10:37;3.30;;;2.27;;
5058;SDS011;2548;52.050;11.036;2023-05-19T11:13:08;2.03;;;1.93;;
5058;SDS011;2548;52.050;11.036;2023-05-19T11:15:45;2.53;;;2.43;;
5058;SDS011;2548;52.050;11.036;2023-05-19T11:18:24;3.83;;;1.90;;
5058;SDS011;2548;52.050;11.036;2023-05-19T11:20:54;3.50;;;1.63;;
5058;SDS011;2548;52.050;11.036;2023-05-19T11:23:33;2.97;;;1.40;;
5058;SDS011;2548;52.050;11.036;2023-05-19T11:26:05;2.10;;;2.00;;
5058;SDS011;2548;52.050;11.036;2023-05-19T11:28:33;1.77;;;1.67;;
5058;SDS011;2548;52.050;11.036;2023-05-19T11:31:08;2.20;;;2.07;;
5058;SDS011;2548;52.050;11.036;2023-05-19T11:33:37;2.33;;;1.77;;
5058;SDS011;2548;52.050;11.036;2023-05-19T11:36:05;2.57;;;2.37;;
5058;SDS011;2548;52.050;11.036;2023-05-19T11:38:36;1.77;;;1.63;;
5058;SDS011;2548;52.050;11.036;2023-05-19T11:41:04;2.00;;;1.90;;
5058;SDS011;2548;52.050;11.036;2023-05-19T11:43:32;1.73;;;1.63;;
5058;SDS011;2548;52.050;11.036;2023-05-19T11:45:59;1.80;;;1.70;;
5058;SDS011;2548;52.050;11.036;2023-05-19T11:48:28;9.00;;;1.73;;
5058;SDS011;2548;52.050;11.036;2023-05-19T11:50:55;1.43;;;1.33;;
5058;SDS011;2548;52.050;11.036;2023-05-19T11:53:28;4.93;;;1.27;;
5058;SDS011;2548;52.050;11.036;2023-05-19T11:56:03;1.30;;;1.20;;
5058;SDS011;2548;52.050;11.036;2023-05-19T11:58:31;1.83;;;1.63;;
5058;SDS011;2548;52.050;11.036;2023-05-19T12:01:02;2.60;;;1.37;;
5058;SDS011;2548;52.050;11.036;2023-05-19T12:03:32;1.63;;;1.50;;
5058;SDS011;2548;52.050;11.036;2023-05-19T12:05:59;1.73;;;1.63;;
5058;SDS011;2548;52.050;11.036;2023-05-19T12:08:30;2.53;;;1.60;;
5058;SDS011;2548;52.050;11.036;2023-05-19T12:10:59;3.80;;;1.40;;
5058;SDS011;2548;52.050;11.036;2023-05-19T12:13:26;5.50;;;1.50;;
5058;SDS011;2548;52.050;11.036;2023-05-19T12:15:57;1.30;;;1.20;;
5058;SDS011;2548;52.050;11.036;2023-05-19T12:18:29;7.00;;;2.00;;
5058;SDS011;2548;52.050;11.036;2023-05-19T12:20:57;1.73;;;1.63;;
5058;SDS011;2548;52.050;11.036;2023-05-19T12:23:28;3.83;;;1.70;;
5058;SDS011;2548;52.050;11.036;2023-05-19T12:25:55;1.77;;;1.67;;
5058;SDS011;2548;52.050;11.036;2023-05-19T12:28:24;5.47;;;1.83;;
5058;SDS011;2548;52.050;11.036;2023-05-19T12:30:55;4.43;;;1.50;;
5058;SDS011;2548;52.050;11.036;2023-05-19T12:33:23;1.97;;;1.60;;
5058;SDS011;2548;52.050;11.036;2023-05-19T12:35:56;2.73;;;1.20;;
5058;SDS011;2548;52.050;11.036;2023-05-19T12:38:24;1.63;;;1.30;;
5058;SDS011;2548;52.050;11.036;2023-05-19T12:40:52;2.80;;;1.37;;
5058;SDS011;2548;52.050;11.036;2023-05-19T12:43:19;1.70;;;1.40;;
5058;SDS011;2548;52.050;11.036;2023-05-19T12:45:49;1.90;;;1.70;;
5058;SDS011;2548;52.050;11.036;2023-05-19T12:48:16;2.80;;;1.50;;
5058;SDS011;2548;52.050;11.036;2023-05-19T12:50:47;1.87;;;1.70;;
5058;SDS011;2548;52.050;11.036;2023-05-19T12:53:17;2.60;;;1.90;;
5058;SDS011;2548;52.050;11.036;2023-05-19T12:55:45;1.60;;;1.43;;
5058;SDS011;2548;52.050;11.036;2023-05-19T12:58:13;2.13;;;1.77;;
5058;SDS011;2548;52.050;11.036;2023-05-19T13:00:49;4.20;;;1.63;;
5058;SDS011;2548;52.050;11.036;2023-05-19T13:03:17;1.23;;;1.23;;
5058;SDS011;2548;52.050;11.036;2023-05-19T13:05:46;2.20;;;1.57;;
5058;SDS011;2548;52.050;11.036;2023-05-19T13:08:16;1.80;;;1.70;;
5058;SDS011;2548;52.050;11.036;2023-05-19T13:10:46;1.43;;;1.33;;
5058;SDS011;2548;52.050;11.036;2023-05-19T13:13:16;3.13;;;1.70;;
5058;SDS011;2548;52.050;11.036;2023-05-19T13:15:45;1.50;;;1.40;;
5058;SDS011;2548;52.050;11.036;2023-05-19T13:18:15;2.20;;;1.57;;
5058;SDS011;2548;52.050;11.036;2023-05-19T13:20:44;1.70;;;1.60;;
5058;SDS011;2548;52.050;11.036;2023-05-19T13:23:14;1.60;;;1.50;;
5058;SDS011;2548;52.050;11.036;2023-05-19T13:25:42;2.40;;;2.00;;
5058;SDS011;2548;52.050;11.036;2023-05-19T13:28:10;2.23;;;1.60;;
5058;SDS011;2548;52.050;11.036;2023-05-19T13:30:38;2.60;;;1.20;;
5058;SDS011;2548;52.050;11.036;2023-05-19T13:33:09;1.40;;;1.30;;
5058;SDS011;2548;52.050;11.036;2023-05-19T13:35:39;2.20;;;1.50;;
5058;SDS011;2548;52.050;11.036;2023-05-19T13:38:07;8.63;;;2.00;;
5058;SDS011;2548;52.050;11.036;2023-05-19T13:40:37;1.53;;;1.43;;
5058;SDS011;2548;52.050;11.036;2023-05-19T13:43:08;1.80;;;1.70;;
5058;SDS011;2548;52.050;11.036;2023-05-19T13:45:35;1.40;;;1.40;;
5058;SDS011;2548;52.050;11.036;2023-05-19T13:48:04;1.63;;;1.53;;
5058;SDS011;2548;52.050;11.036;2023-05-19T13:50:32;2.10;;;1.63;;
5058;SDS011;2548;52.050;11.036;2023-05-19T13:53:04;2.50;;;1.17;;
5058;SDS011;2548;52.050;11.036;2023-05-19T13:55:32;2.00;;;1.63;;
5058;SDS011;2548;52.050;11.036;2023-05-19T13:58:00;1.43;;;1.33;;
5058;SDS011;2548;52.050;11.036;2023-05-19T14:00:28;3.30;;;1.70;;
5058;SDS011;2548;52.050;11.036;2023-05-19T14:02:57;5.47;;;1.50;;
5058;SDS011;2548;52.050;11.036;2023-05-19T14:05:27;1.63;;;1.53;;
5058;SDS011;2548;52.050;11.036;2023-05-19T14:07:55;3.70;;;1.40;;
5058;SDS011;2548;52.050;11.036;2023-05-19T14:10:26;1.40;;;1.30;;
5058;SDS011;2548;52.050;11.036;2023-05-19T14:12:54;1.47;;;1.10;;
5058;SDS011;2548;52.050;11.036;2023-05-19T14:15:25;1.70;;;1.60;;
5058;SDS011;2548;52.050;11.036;2023-05-19T14:17:58;1.60;;;1.50;;
5058;SDS011;2548;52.050;11.036;2023-05-19T14:20:29;3.60;;;1.77;;
5058;SDS011;2548;52.050;11.036;2023-05-19T14:22:57;1.30;;;1.20;;
5058;SDS011;2548;52.050;11.036;2023-05-19T14:25:38;2.30;;;1.40;;
5058;SDS011;2548;52.050;11.036;2023-05-19T14:28:09;1.53;;;1.30;;
5058;SDS011;2548;52.050;11.036;2023-05-19T14:30:37;2.10;;;1.57;;
5058;SDS011;2548;52.050;11.036;2023-05-19T14:33:05;1.90;;;1.80;;
5058;SDS011;2548;52.050;11.036;2023-05-19T14:35:33;2.37;;;2.27;;
5058;SDS011;2548;52.050;11.036;2023-05-19T14:38:01;3.53;;;1.90;;
5058;SDS011;2548;52.050;11.036;2023-05-19T14:40:29;1.53;;;1.40;;
5058;SDS011;2548;52.050;11.036;2023-05-19T14:42:58;2.30;;;1.90;;
5058;SDS011;2548;52.050;11.036;2023-05-19T14:45:25;2.07;;;1.97;;
5058;SDS011;2548;52.050;11.036;2023-05-19T14:47:56;1.83;;;1.60;;
5058;SDS011;2548;52.050;11.036;2023-05-19T14:50:27;1.47;;;1.37;;
5058;SDS011;2548;52.050;11.036;2023-05-19T14:52:56;1.37;;;1.20;;
5058;SDS011;2548;52.050;11.036;2023-05-19T14:55:27;1.97;;;1.67;;
5058;SDS011;2548;52.050;11.036;2023-05-19T14:58:00;1.60;;;1.50;;
5058;SDS011;2548;52.050;11.036;2023-05-19T15:00:28;4.50;;;1.50;;
5058;SDS011;2548;52.050;11.036;2023-05-19T15:03:09;1.40;;;1.30;;
5058;SDS011;2548;52.050;11.036;2023-05-19T15:05:43;3.73;;;1.53;;
5058;SDS011;2548;52.050;11.036;2023-05-19T15:08:15;1.47;;;1.37;;
5058;SDS011;2548;52.050;11.036;2023-05-19T15:10:46;1.60;;;1.50;;
5058;SDS011;2548;52.050;11.036;2023-05-19T15:13:27;1.63;;;1.37;;
5058;SDS011;2548;52.050;11.036;2023-05-19T15:16:09;6.37;;;1.50;;
5058;SDS011;2548;52.050;11.036;2023-05-19T15:18:43;1.63;;;1.53;;
5058;SDS011;2548;52.050;11.036;2023-05-19T15:21:19;6.70;;;1.90;;
5058;SDS011;2548;52.050;11.036;2023-05-19T15:23:48;4.83;;;1.60;;
5058;SDS011;2548;52.050;11.036;2023-05-19T15:26:19;3.03;;;1.20;;